createdAt,value
2023-08-20T00:03:37.760Z,8.50
2023-08-20T00:08:45.606Z,9.10
2023-08-20T00:13:53.396Z,9.70
2023-08-20T00:19:02.169Z,9.50
2023-08-20T00:24:11.665Z,9.10
2023-08-20T00:29:19.207Z,9.40
2023-08-20T00:34:26.733Z,9.70
2023-08-20T00:39:34.514Z,9.90
2023-08-20T00:44:43.439Z,9.00
2023-08-20T00:49:51.519Z,8.80
2023-08-20T00:55:00.590Z,8.50
2023-08-20T01:00:12.468Z,8.70
2023-08-20T01:05:20.405Z,9.80
2023-08-20T01:10:33.771Z,9.00
2023-08-20T01:15:41.479Z,9.10
2023-08-20T01:20:54.180Z,9.90
2023-08-20T01:26:20.041Z,9.20
2023-08-20T01:31:28.910Z,9.50
2023-08-20T01:36:36.674Z,9.60
2023-08-20T01:41:44.504Z,9.20
2023-08-20T01:46:52.105Z,9.10
2023-08-20T01:52:00.636Z,9.40
2023-08-20T01:57:08.521Z,9.60
2023-08-20T02:02:16.171Z,9.80
2023-08-20T02:07:23.722Z,9.20
2023-08-20T02:12:31.683Z,9.80
2023-08-20T02:17:39.656Z,9.40
2023-08-20T02:22:47.256Z,10.50
2023-08-20T02:27:56.601Z,9.90
2023-08-20T02:33:04.318Z,10.10
2023-08-20T02:38:12.679Z,8.80
2023-08-20T02:43:21.323Z,9.40
2023-08-20T02:48:29.272Z,9.00
2023-08-20T02:53:37.058Z,9.90
2023-08-20T02:58:44.571Z,9.50
2023-08-20T03:03:52.282Z,9.90
2023-08-20T03:09:00.362Z,11.30
2023-08-20T03:14:08.407Z,10.80
2023-08-20T03:19:17.457Z,10.40
2023-08-20T03:24:24.840Z,9.20
2023-08-20T03:29:32.335Z,9.70
2023-08-20T03:34:40.327Z,8.30
2023-08-20T03:39:48.296Z,8.70
2023-08-20T03:44:56.191Z,9.60
2023-08-20T03:50:04.021Z,9.20
2023-08-20T03:55:12.602Z,7.90
2023-08-20T04:00:20.684Z,8.70
2023-08-20T04:05:28.715Z,9.70
2023-08-20T04:10:37.203Z,9.20
2023-08-20T04:15:48.056Z,9.00
2023-08-20T04:20:57.136Z,9.90
2023-08-20T04:26:05.210Z,8.60
2023-08-20T04:31:13.009Z,10.10
2023-08-20T04:36:29.184Z,9.80
2023-08-20T04:41:36.806Z,11.70
2023-08-20T04:46:45.487Z,13.00
2023-08-20T04:51:54.644Z,11.70
2023-08-20T04:57:02.448Z,12.30
2023-08-20T05:02:10.406Z,13.30
2023-08-20T05:12:27.400Z,11.90
2023-08-20T05:17:34.693Z,11.60
2023-08-20T05:22:43.964Z,12.60
2023-08-20T05:27:51.690Z,13.10
2023-08-20T05:32:59.534Z,13.20
2023-08-20T05:38:08.714Z,12.00
2023-08-20T05:43:16.644Z,12.70
2023-08-20T05:48:24.490Z,13.00
2023-08-20T05:53:33.093Z,12.10
2023-08-20T05:58:40.894Z,12.50
2023-08-20T06:03:49.338Z,12.60
2023-08-20T06:09:08.393Z,12.10
2023-08-20T06:14:17.230Z,11.70
2023-08-20T06:19:24.626Z,12.40
2023-08-20T06:24:31.869Z,12.20
2023-08-20T06:29:40.384Z,12.20
2023-08-20T06:34:47.714Z,12.80
2023-08-20T06:39:55.360Z,11.40
2023-08-20T06:45:02.864Z,11.60
2023-08-20T06:50:12.106Z,12.20
2023-08-20T06:55:19.715Z,12.70
2023-08-20T07:00:27.186Z,10.80
2023-08-20T07:05:34.713Z,9.90
2023-08-20T07:10:42.414Z,10.60
2023-08-20T07:15:49.914Z,10.70
2023-08-20T07:20:58.149Z,11.10
2023-08-20T07:26:13.684Z,10.20
2023-08-20T07:31:21.192Z,10.00
2023-08-20T07:36:29.529Z,10.50
2023-08-20T07:41:37.345Z,10.30
2023-08-20T07:46:44.982Z,9.90
2023-08-20T07:51:53.865Z,10.50
2023-08-20T07:57:01.248Z,10.30
2023-08-20T08:02:09.449Z,9.90
2023-08-20T08:07:16.836Z,9.60
2023-08-20T08:12:24.674Z,10.40
2023-08-20T08:17:32.183Z,10.30
2023-08-20T08:22:39.887Z,9.90
2023-08-20T08:27:59.593Z,10.10
2023-08-20T08:33:09.575Z,9.50
2023-08-20T08:38:17.165Z,8.90
2023-08-20T08:43:25.144Z,9.70
2023-08-20T08:48:33.185Z,8.50
2023-08-20T08:53:41.091Z,9.00
2023-08-20T08:58:48.830Z,9.80
2023-08-20T09:03:56.699Z,9.60
2023-08-20T09:09:10.614Z,9.70
2023-08-20T09:14:31.552Z,9.70
2023-08-20T09:24:47.688Z,8.60
2023-08-20T09:29:56.400Z,9.40
2023-08-20T09:35:04.055Z,9.60
2023-08-20T09:40:14.206Z,9.00
2023-08-20T09:45:22.453Z,9.80
2023-08-20T09:50:34.045Z,9.00
2023-08-20T09:55:45.084Z,9.40
2023-08-20T10:00:53.372Z,8.60
2023-08-20T10:06:03.149Z,8.60
2023-08-20T10:11:10.651Z,9.10
2023-08-20T10:16:22.596Z,9.30
2023-08-20T10:21:47.485Z,9.30
2023-08-20T10:27:12.612Z,8.90
2023-08-20T10:32:20.226Z,8.40
2023-08-20T10:37:38.067Z,8.40
2023-08-20T10:42:46.445Z,8.80
2023-08-20T10:47:53.926Z,9.40
2023-08-20T10:53:01.703Z,9.30
2023-08-20T10:58:10.108Z,8.40
2023-08-20T11:03:18.183Z,9.40
2023-08-20T11:08:25.797Z,8.90
2023-08-20T11:13:35.108Z,8.10
2023-08-20T11:18:43.198Z,10.40
2023-08-20T11:23:51.443Z,8.90
2023-08-20T11:28:59.107Z,9.00
2023-08-20T11:34:07.255Z,9.40
2023-08-20T11:39:15.002Z,8.30
2023-08-20T11:44:27.920Z,8.80
2023-08-20T11:49:35.373Z,8.60
2023-08-20T11:54:44.795Z,9.20
2023-08-20T11:59:52.341Z,10.10
2023-08-20T12:05:01.995Z,9.00
2023-08-20T12:10:25.675Z,9.30
2023-08-20T12:15:33.232Z,9.00
2023-08-20T12:20:40.946Z,8.30
2023-08-20T12:25:52.521Z,8.40
2023-08-20T12:31:00.385Z,7.90
2023-08-20T12:36:09.290Z,8.30
2023-08-20T12:41:17.129Z,8.60
2023-08-20T12:46:24.747Z,7.80
2023-08-20T12:51:32.714Z,7.90
2023-08-20T12:56:40.598Z,8.40
2023-08-20T13:01:48.790Z,8.40
2023-08-20T13:06:58.406Z,8.10
2023-08-20T13:12:11.021Z,8.60
2023-08-20T13:17:20.840Z,6.90
2023-08-20T13:22:28.632Z,7.70
2023-08-20T13:27:36.531Z,8.00
2023-08-20T13:32:44.362Z,7.80
2023-08-20T13:37:51.959Z,8.60
2023-08-20T13:42:59.379Z,6.40
2023-08-20T13:48:09.123Z,8.30
2023-08-20T13:53:16.694Z,8.30
2023-08-20T13:58:24.214Z,8.00
2023-08-20T14:03:31.726Z,8.70
2023-08-20T14:08:39.397Z,8.70
2023-08-20T14:13:47.195Z,8.50
2023-08-20T14:18:54.711Z,8.60
2023-08-20T14:24:02.734Z,9.10
2023-08-20T14:29:10.202Z,9.10
2023-08-20T14:34:17.572Z,8.90
2023-08-20T14:39:25.159Z,9.00
2023-08-20T14:44:32.781Z,8.60
2023-08-20T14:49:40.844Z,9.00
2023-08-20T14:54:48.264Z,9.50
2023-08-20T14:59:55.871Z,8.80
2023-08-20T15:05:03.706Z,9.10
2023-08-20T15:10:12.434Z,8.80
2023-08-20T15:15:20.196Z,8.60
2023-08-20T15:20:27.972Z,8.30
2023-08-20T15:25:35.649Z,7.90
2023-08-20T15:30:43.248Z,7.80
2023-08-20T15:35:51.100Z,8.30
2023-08-20T15:41:00.830Z,8.20
2023-08-20T15:46:08.229Z,8.20
2023-08-20T15:51:15.543Z,8.50
2023-08-20T15:56:22.900Z,6.30
2023-08-20T16:01:30.221Z,7.80
2023-08-20T16:06:37.530Z,7.80
2023-08-20T16:11:44.804Z,8.50
2023-08-20T16:16:53.184Z,8.00
2023-08-20T16:22:00.449Z,7.80
2023-08-20T16:27:08.740Z,7.10
2023-08-20T16:32:16.147Z,8.10
2023-08-20T16:37:23.409Z,7.50
2023-08-20T16:42:30.906Z,7.30
2023-08-20T16:47:38.410Z,7.30
2023-08-20T16:52:46.045Z,8.20
2023-08-20T16:57:55.199Z,8.30
2023-08-20T17:03:02.913Z,8.80
2023-08-20T17:08:11.248Z,8.90
2023-08-20T17:13:18.970Z,9.70
2023-08-20T17:18:26.876Z,10.00
2023-08-20T17:23:34.405Z,10.20
2023-08-20T17:28:43.755Z,10.20
2023-08-20T17:33:51.370Z,10.20
2023-08-20T17:39:01.223Z,10.40
2023-08-20T17:44:09.609Z,9.40
2023-08-20T17:49:18.404Z,9.90
2023-08-20T17:54:25.984Z,11.20
2023-08-20T17:59:34.487Z,10.40
2023-08-20T18:04:42.659Z,10.10
2023-08-20T18:09:50.606Z,10.90
2023-08-20T18:14:58.041Z,9.90
2023-08-20T18:20:06.072Z,10.30
2023-08-20T18:25:14.401Z,10.20
2023-08-20T18:30:22.890Z,9.90
2023-08-20T18:35:30.921Z,9.90
2023-08-20T18:40:38.485Z,10.20
2023-08-20T18:45:46.231Z,9.80
2023-08-20T18:50:53.885Z,10.20
2023-08-20T18:56:01.837Z,10.10
2023-08-20T19:01:09.814Z,9.30
2023-08-20T19:06:18.490Z,10.10
2023-08-20T19:11:26.603Z,10.00
2023-08-20T19:16:35.232Z,10.00
2023-08-20T19:21:43.136Z,10.00
2023-08-20T19:26:50.923Z,10.20
2023-08-20T19:31:59.958Z,10.10
2023-08-20T19:37:08.234Z,10.40
2023-08-20T19:42:17.115Z,10.40
2023-08-20T19:47:25.800Z,10.20
2023-08-20T19:52:33.881Z,10.50
2023-08-20T19:57:41.877Z,10.80
2023-08-20T20:02:54.121Z,10.70
2023-08-20T20:08:02.564Z,10.70
2023-08-20T20:13:10.242Z,10.00
2023-08-20T20:18:17.724Z,10.90
2023-08-20T20:23:25.230Z,11.50
2023-08-20T20:28:33.757Z,11.30
2023-08-20T20:33:42.274Z,11.60
2023-08-20T20:38:51.088Z,11.70
2023-08-20T20:43:58.467Z,11.70
2023-08-20T20:49:06.153Z,11.20
2023-08-20T20:54:13.561Z,11.80
2023-08-20T20:59:22.532Z,11.40
2023-08-20T21:04:31.286Z,11.30
2023-08-20T21:09:38.650Z,11.50
2023-08-20T21:14:45.864Z,11.20
2023-08-20T21:19:55.282Z,10.90
2023-08-20T21:25:04.492Z,11.80
2023-08-20T21:30:15.866Z,11.70
2023-08-20T21:35:23.741Z,11.30
2023-08-20T21:40:31.272Z,10.80
2023-08-20T21:45:40.582Z,11.50
2023-08-20T21:50:47.929Z,11.60
2023-08-20T21:56:01.591Z,11.40
2023-08-20T22:01:09.626Z,11.80
2023-08-20T22:06:17.765Z,12.10
2023-08-20T22:11:24.907Z,11.30
2023-08-20T22:16:32.030Z,12.40
2023-08-20T22:21:39.528Z,11.40
2023-08-20T22:26:46.908Z,11.50
2023-08-20T22:31:54.118Z,11.70
2023-08-20T22:37:01.929Z,11.60
2023-08-20T22:42:10.003Z,11.00
2023-08-20T22:47:17.368Z,11.40
2023-08-20T22:52:24.618Z,11.40
2023-08-20T22:57:32.558Z,11.20
2023-08-20T23:02:40.699Z,10.50
2023-08-20T23:07:48.687Z,11.40
2023-08-20T23:12:56.269Z,11.10
2023-08-20T23:18:05.037Z,10.30
2023-08-20T23:23:12.660Z,10.80
2023-08-20T23:28:20.809Z,9.90
2023-08-20T23:33:28.744Z,10.80
2023-08-20T23:38:41.729Z,10.30
2023-08-20T23:43:49.504Z,10.30
2023-08-20T23:48:57.691Z,10.40
2023-08-20T23:54:05.754Z,10.90
2023-08-20T23:59:13.741Z,10.60
